Latest Weather Observations for Bankstown

IDN60901

Issued at 5:51 pm EST Sunday 19 April 2015 (issued every 10 minutes, with the page automatically refreshed every 10 minutes)

About weather observations | Map of Sydney area stations | Latest observations for Sydney area | Other Formats
Station Details ID: 066137 Name: BANKSTOWN AIRPORT AWS Lat: -33.92 Lon: 150.99 Height: 6.5 m
Data from the previous 72 hours. | See also: Recent months at Bankstown
Date/Time
EST
Tmp

°C
App
Tmp
°C
Dew
Point
°C
Rel
Hum
%
Delta-T

°C
Wind Press
QNH
hPa
Press
MSL
hPa
Rain
since
9 am
mm
Dir
 
Spd
km/h
Gust
km/h
Spd
kts
Gust
kts
19/05:30pm 16.4 10.9 9.3 63 3.7 SSE 28 41 15 22 1021.7 1021.7 0.0
19/05:13pm 16.7 10.2 8.9 60 4.0 SSE 33 52 18 28 1021.7 1021.7 0.0
19/05:00pm 17.4 11.3 9.6 60 4.1 SSE 32 46 17 25 1021.6 1021.6 0.0
19/04:30pm 18.2 10.5 8.7 54 4.9 SSE 39 57 21 31 1021.0 1021.0 0.0
19/04:02pm 18.8 12.7 9.8 56 4.8 SSE 32 52 17 28 1020.5 1020.5 0.0
19/04:00pm 18.9 13.0 10.5 58 4.5 SSE 32 43 17 23 1020.4 1020.4 0.0
19/03:30pm 19.4 14.1 11.2 59 4.5 SSE 30 39 16 21 1020.1 1020.1 0.0
19/03:00pm 19.6 13.4 11.4 59 4.5 SSE 35 50 19 27 1019.7 1019.7 0.0
19/02:30pm 20.5 14.9 11.4 56 5.0 SSE 32 44 17 24 1019.4 1019.4 0.0
19/02:00pm 20.6 15.2 12.1 58 4.7 SSE 32 41 17 22 1019.2 1019.2 0.0
19/01:37pm 21.2 16.5 12.1 56 5.1 SSE 28 46 15 25 1019.0 1019.0 0.0
19/01:30pm 21.4 16.9 12.5 57 5.0 SSE 28 37 15 20 1019.0 1019.0 0.0
19/01:00pm 21.1 16.6 11.4 54 5.4 SE 26 32 14 17 1018.9 1018.9 0.0
19/12:30pm 21.1 17.2 12.0 56 5.1 SSE 24 33 13 18 1019.0 1019.0 0.0
19/12:00pm 23.4 21.3 11.1 46 6.8 SSW 13 24 7 13 1018.9 1018.9 0.0
19/11:30am 22.0 19.0 9.2 44 6.8 SSW 15 24 8 13 1019.0 1019.0 0.0
19/11:00am 21.3 17.3 8.2 43 6.8 SW 19 26 10 14 1019.2 1019.2 0.0
19/10:30am 21.2 17.1 8.5 44 6.7 SW 20 28 11 15 1019.2 1019.2 0.0
19/10:00am 20.3 16.9 9.2 49 5.9 SSW 17 22 9 12 1019.1 1019.1 0.0
19/09:30am 19.6 16.1 8.9 50 5.6 SW 17 32 9 17 1019.1 1019.1 0.0
19/09:00am 18.9 15.3 9.9 56 4.8 SW 19 26 10 14 1018.7 1018.7 4.8
19/08:30am 18.2 15.9 14.1 77 2.3 SW 19 24 10 13 1018.4 1018.4 4.8
19/08:03am 17.2 17.1 15.9 92 0.8 SSW 11 15 6 8 1018.0 1018.0 4.8
19/08:00am 17.0 16.8 15.7 92 0.8 SSW 11 15 6 8 1017.9 1017.9 4.8
19/07:30am 16.7 17.3 15.4 92 0.8 WNW 6 7 3 4 1017.4 1017.4 4.8
19/07:00am 16.5 16.8 15.0 91 0.9 WNW 7 9 4 5 1016.5 1016.5 4.8
19/06:55am 16.5 16.8 15.0 91 0.9 WNW 7 9 4 5 1016.5 1016.5 4.8
19/06:30am 15.8 15.8 14.2 90 0.9 WNW 7 11 4 6 1016.1 1016.1 4.8
19/06:25am 15.8 16.0 14.2 90 0.9 NNW 6 9 3 5 1016.0 1016.0 4.8
19/06:16am 16.4 16.6 14.8 90 0.9 NW 7 7 4 4 1015.7 1015.7 4.8
19/05:30am 16.2 16.3 14.4 89 1.0 S 7 9 4 5 1015.0 1015.0 4.8
19/05:26am 16.2 16.3 14.4 89 1.0 S 7 11 4 6 1014.9 1014.9 4.8
19/05:00am 17.2 19.0 15.4 89 1.1 CALM 0 0 0 0 1014.8 1014.8 4.8
19/04:30am 17.4 18.1 15.6 89 1.1 NW 6 7 3 4 1014.6 1014.6 4.8
19/04:00am 17.6 19.4 15.6 88 1.2 CALM 0 4 0 2 1014.1 1014.1 4.8
19/03:30am 18.0 18.9 16.0 88 1.2 NW 6 9 3 5 1013.9 1013.9 4.8
19/03:00am 18.0 18.9 16.0 88 1.2 W 6 7 3 4 1013.9 1013.9 4.8
19/02:30am 18.2 18.9 16.2 88 1.2 WNW 7 9 4 5 1013.8 1013.8 4.8
19/02:00am 18.1 19.2 15.7 86 1.4 NNW 4 7 2 4 1013.5 1013.5 4.8
19/01:30am 18.5 19.2 16.1 86 1.4 NNW 7 11 4 6 1013.7 1013.7 4.6
19/01:00am 18.7 18.3 16.3 86 1.4 NNW 13 17 7 9 1014.6 1014.6 4.6
19/12:30am 18.8 18.4 16.2 85 1.6 NNW 13 20 7 11 1014.6 1014.6 4.2
 
Date/Time
EST
Tmp

°C
App
Tmp
°C
Dew
Point
°C
Rel
Hum
%
Delta-T

°C
Wind Press
QNH
hPa
Press
MSL
hPa
Rain
since
9 am
mm
Dir
 
Spd
km/h
Gust
km/h
Spd
kts
Gust
kts
18/11:30pm 18.7 19.0 16.1 85 1.5 NNW 9 13 5 7 1014.7 1014.7 3.2
18/11:00pm 18.9 18.8 15.9 83 1.8 NW 11 15 6 8 1015.0 1015.0 2.0
18/10:30pm 19.3 18.3 15.6 79 2.2 N 15 22 8 12 1015.0 1015.0 1.4
18/10:00pm 19.9 17.9 15.5 76 2.6 NNW 20 28 11 15 1015.0 1015.0 0.8
18/09:30pm 21.0 19.9 16.4 75 2.8 NNW 17 20 9 11 1014.9 1014.9 0.6
18/09:02pm 21.3 17.8 15.4 69 3.5 WNW 28 46 15 25 1014.8 1014.8 0.4
18/09:00pm 21.4 17.4 15.3 68 3.6 WNW 30 46 16 25 1014.8 1014.8 0.4
18/08:53pm 23.6 21.3 14.0 55 5.6 NW 19 46 10 25 1014.7 1014.7 0.2
18/08:30pm 23.0 23.9 15.1 61 4.7 N 4 11 2 6 1013.3 1013.3 0.2
18/08:00pm 22.4 23.8 14.5 61 4.6 CALM 0 0 0 0 1013.4 1013.4 0.2
18/07:30pm 23.2 23.4 14.2 57 5.3 N 6 7 3 4 1013.3 1013.3 0.2
18/07:00pm 23.4 23.0 14.1 56 5.5 NNE 9 13 5 7 1013.1 1013.1 0.2
18/06:30pm 23.9 23.1 14.0 54 5.8 NNE 11 17 6 9 1013.2 1013.2 0.2
18/06:00pm 24.1 23.3 13.9 53 6.0 N 11 17 6 9 1013.0 1013.0 0.2
18/05:30pm 24.5 22.8 13.7 51 6.3 N 15 19 8 10 1012.8 1012.8 0.2
18/05:00pm 24.9 22.4 13.5 49 6.7 N 19 28 10 15 1012.8 1012.8 0.2
18/04:30pm 25.2 22.6 13.7 49 6.8 N 20 33 11 18 1012.8 1012.8 0.2
18/04:00pm 25.5 23.2 14.0 49 6.8 N 19 28 10 15 1013.1 1013.1 0.2
18/03:30pm 26.0 23.8 14.5 49 6.9 N 19 32 10 17 1013.1 1013.1 0.2
18/03:00pm 26.1 24.2 14.2 48 7.1 N 17 28 9 15 1013.4 1013.4 0.2
18/02:30pm 26.7 23.6 13.4 43 7.8 NNW 22 33 12 18 1013.5 1013.5 0.2
18/02:00pm 26.7 23.6 13.4 43 7.8 NNW 22 32 12 17 1013.6 1013.6 0.2
18/01:30pm 26.8 24.1 13.5 44 7.8 NNW 20 30 11 16 1013.8 1013.8 0.2
18/01:00pm 27.7 25.3 14.3 43 8.0 N 20 32 11 17 1014.0 1014.0 0.2
18/12:30pm 27.7 25.1 15.0 45 7.7 NNW 22 32 12 17 1014.5 1014.5 0.2
18/12:00pm 27.3 24.4 14.0 44 7.9 NNW 22 33 12 18 1015.2 1015.2 0.2
18/11:30am 26.9 24.8 14.6 46 7.4 NNW 19 26 10 14 1015.8 1015.8 0.2
18/11:00am 25.4 22.9 14.2 50 6.6 NNW 20 32 11 17 1016.3 1016.3 0.2
18/10:30am 25.5 23.4 14.6 51 6.5 NNW 19 28 10 15 1016.5 1016.5 0.2
18/10:00am 25.4 23.7 15.7 55 5.9 NNW 19 32 10 17 1016.8 1016.8 0.0
18/09:30am 25.0 23.8 16.2 58 5.4 N 17 24 9 13 1017.1 1017.1 0.0
18/09:00am 24.1 24.1 17.1 65 4.3 NNW 13 19 7 10 1017.4 1017.4 1.4
18/08:30am 20.7 24.0 19.0 90 1.1 CALM 0 0 0 0 1017.7 1017.7 1.4
18/08:01am 19.1 21.7 17.4 90 1.0 CALM 0 0 0 0 1017.9 1017.9 1.4
18/08:00am 19.1 21.7 17.4 90 1.0 CALM 0 0 0 0 1017.9 1017.9 1.4
18/07:30am 18.4 20.7 16.7 90 1.0 CALM 0 0 0 0 1017.8 1017.8 1.4
18/07:00am 18.1 20.3 16.4 90 1.0 CALM 0 0 0 0 1017.4 1017.4 1.4
18/06:30am 17.6 19.5 15.8 89 1.1 CALM 0 0 0 0 1017.2 1017.2 1.4
18/06:00am 18.2 19.2 16.4 89 1.1 NNW 6 9 3 5 1017.1 1017.1 1.4
18/05:57am 18.4 19.5 16.6 89 1.1 NNW 6 9 3 5 1017.1 1017.1 1.4
18/05:30am 19.1 20.5 17.4 90 1.0 N 6 9 3 5 1017.0 1017.0 1.4
18/05:05am 18.2 20.4 16.4 89 1.1 CALM 0 0 0 0 1017.1 1017.1 1.4
18/05:00am 18.2 20.4 16.4 89 1.1 CALM 0 0 0 0 1017.2 1017.2 1.4
18/04:30am 18.7 21.0 16.8 89 1.1 CALM 0 0 0 0 1016.9 1016.9 1.4
18/04:00am 18.4 20.6 16.6 89 1.1 CALM 0 0 0 0 1017.3 1017.3 1.4
18/03:30am 18.5 20.7 16.5 88 1.2 CALM 0 0 0 0 1017.5 1017.5 1.4
18/03:00am 18.3 20.4 16.3 88 1.2 CALM 0 0 0 0 1017.7 1017.7 1.4
18/02:43am 18.9 21.3 16.9 88 1.2 CALM 0 0 0 0 1017.9 1017.9 1.4
18/02:37am 19.1 21.5 17.1 88 1.2 CALM 0 0 0 0 1017.9 1017.9 1.4
18/02:30am 19.2 21.6 17.0 87 1.3 CALM 0 0 0 0 1018.0 1018.0 1.4
18/02:18am 19.1 21.5 16.9 87 1.3 CALM 0 0 0 0 1018.2 1018.2 1.4
18/02:02am 19.4 21.8 17.0 86 1.5 CALM 0 0 0 0 1018.5 1018.5 1.4
18/02:00am 19.6 22.1 17.2 86 1.5 CALM 0 0 0 0 1018.5 1018.5 1.4
18/01:30am 20.2 21.7 18.0 87 1.4 N 7 9 4 5 1018.9 1018.9 1.4
18/01:00am 19.9 21.9 17.9 88 1.2 NW 4 11 2 6 1019.3 1019.3 1.4
18/12:30am 19.6 21.1 17.6 88 1.2 N 6 7 3 4 1019.7 1019.7 1.4
18/12:00am 19.5 22.1 17.5 88 1.2 CALM 0 0 0 0 1019.7 1019.7 1.4
 
Date/Time
EST
Tmp

°C
App
Tmp
°C
Dew
Point
°C
Rel
Hum
%
Delta-T

°C
Wind Press
QNH
hPa
Press
MSL
hPa
Rain
since
9 am
mm
Dir
 
Spd
km/h
Gust
km/h
Spd
kts
Gust
kts
17/11:30pm 19.3 21.7 17.1 87 1.3 CALM 0 0 0 0 1020.3 1020.3 1.4
17/11:00pm 19.4 21.9 17.2 87 1.3 CALM 0 0 0 0 1020.4 1020.4 1.4
17/10:30pm 19.2 21.5 16.8 86 1.4 CALM 0 0 0 0 1020.8 1020.8 1.4
17/10:24pm 19.2 21.5 16.8 86 1.4 CALM 0 0 0 0 1020.8 1020.8 1.4
17/10:00pm 19.2 21.5 16.8 86 1.4 CALM 0 0 0 0 1021.0 1021.0 1.4
17/09:30pm 19.3 21.6 16.7 85 1.6 CALM 0 0 0 0 1021.2 1021.2 1.4
17/09:00pm 19.5 21.7 16.5 83 1.8 CALM 0 0 0 0 1021.3 1021.3 1.4
17/08:30pm 19.9 22.1 16.5 81 2.0 CALM 0 0 0 0 1021.5 1021.5 1.4
17/08:00pm 20.4 21.9 16.6 79 2.3 NE 4 9 2 5 1021.5 1021.5 1.4
17/07:30pm 20.5 21.0 16.5 78 2.4 ENE 9 13 5 7 1021.2 1021.2 1.4
17/07:00pm 20.6 21.0 16.4 77 2.5 NE 9 11 5 6 1021.3 1021.3 1.4
17/06:30pm 20.8 20.9 16.6 77 2.5 ENE 11 17 6 9 1021.2 1021.2 1.4
17/06:00pm 20.8 21.9 17.0 79 2.3 E 7 11 4 6 1021.3 1021.3 1.4
17/05:30pm 20.9 21.9 16.9 78 2.4 ENE 7 11 4 6 1021.1 1021.1 1.4
17/05:00pm 21.1 21.4 17.1 78 2.4 ENE 11 17 6 9 1020.9 1020.9 1.4
17/04:46pm 21.1 21.1 17.1 78 2.4 ENE 13 19 7 10 1020.9 1020.9 1.4
17/04:35pm 21.2 21.2 17.2 78 2.4 ENE 13 19 7 10 1020.9 1020.9 1.4
17/04:30pm 21.2 21.6 17.2 78 2.4 ENE 11 15 6 8 1020.9 1020.9 1.4
17/04:15pm 21.3 21.7 17.3 78 2.5 ENE 11 17 6 9 1021.0 1021.0 1.4
17/04:00pm 21.4 22.3 17.6 79 2.3 ENE 9 15 5 8 1020.9 1020.9 1.4
17/03:30pm 22.5 23.4 17.6 74 3.0 ENE 9 13 5 7 1021.0 1021.0 1.4
17/03:00pm 21.4 22.4 17.8 80 2.2 E 9 11 5 6 1021.1 1021.1 1.4
17/02:30pm 21.4 22.5 18.0 81 2.1 E 9 13 5 7 1021.4 1021.4 1.4
17/02:29pm 21.4 22.5 18.0 81 2.1 E 9 13 5 7 1021.4 1021.4 1.4
17/02:00pm 21.3 22.4 17.9 81 2.1 E 9 13 5 7 1021.5 1021.5 1.4
17/01:57pm 21.4 22.5 18.0 81 2.1 ENE 9 13 5 7 1021.5 1021.5 1.4
17/01:42pm 21.2 22.6 17.8 81 2.1 ENE 7 11 4 6 1021.8 1021.8 1.4
17/01:30pm 21.2 22.2 17.8 81 2.1 ENE 9 13 5 7 1021.9 1021.9 1.4
17/01:12pm 21.2 23.0 18.2 83 1.9 ENE 6 11 3 6 1022.1 1022.1 1.4
17/01:00pm 21.0 22.5 18.0 83 1.9 ENE 7 13 4 7 1022.4 1022.4 1.4
17/12:31pm 20.8 23.0 18.4 86 1.5 NNE 4 7 2 4 1023.0 1023.0 1.4
17/12:30pm 20.7 22.9 18.3 86 1.5 NNE 4 7 2 4 1023.0 1023.0 1.4
17/12:13pm 20.4 21.9 18.0 86 1.5 NE 7 9 4 5 1023.3 1023.3 1.4
17/12:00pm 20.3 21.9 17.9 86 1.5 N 6 9 3 5 1023.6 1023.6 1.4
17/11:38am 20.6 21.9 17.6 83 1.8 N 7 13 4 7 1024.1 1024.1 0.4
17/11:30am 20.6 21.7 17.2 81 2.1 N 7 9 4 5 1024.2 1024.2 0.2
17/11:00am 20.4 22.7 17.8 85 1.6 S 2 6 1 3 1024.4 1024.4 0.0
17/10:30am 20.5 21.8 17.5 83 1.8 W 7 9 4 5 1024.6 1024.6 0.0
17/10:00am 20.5 21.9 17.3 82 1.9 WNW 6 7 3 4 1024.7 1024.7 0.0
17/09:30am 20.7 22.8 17.3 81 2.1 NNE 2 6 1 3 1024.7 1024.7 0.0
17/09:00am 20.3 21.4 17.9 86 1.5 ENE 9 13 5 7 1024.7 1024.7 2.4
17/08:30am 19.6 22.3 17.7 89 1.2 CALM 0 0 0 0 1024.8 1024.8 2.4
17/08:00am 19.4 21.2 17.5 89 1.2 SW 4 7 2 4 1024.7 1024.7 2.4
17/07:30am 19.5 21.0 17.6 89 1.2 SSE 6 7 3 4 1024.2 1024.2 2.4
17/07:00am 19.4 22.0 17.4 88 1.2 CALM 0 0 0 0 1024.0 1024.0 2.4
17/06:30am 19.3 21.4 17.1 87 1.3 SW 2 6 1 3 1023.9 1023.9 2.4
17/06:08am 19.4 20.5 17.2 87 1.3 SE 7 9 4 5 1023.6 1023.6 2.4
17/06:00am 19.4 20.5 17.2 87 1.3 SSE 7 9 4 5 1023.5 1023.5 2.4
17/05:48am 19.5 20.7 17.3 87 1.3 SE 7 7 4 4 1023.7 1023.7 2.0
17/05:30am 19.6 20.7 17.2 86 1.5 SE 7 9 4 5 1023.4 1023.4 1.6
17/05:00am 19.5 20.1 16.9 85 1.6 SSE 9 13 5 7 1023.2 1023.2 1.4
17/04:30am 19.9 20.3 17.3 85 1.6 SE 11 15 6 8 1023.2 1023.2 1.2
17/04:00am 19.9 19.9 17.3 85 1.6 SE 13 17 7 9 1023.1 1023.1 1.2
17/03:30am 19.9 20.3 17.3 85 1.6 SSE 11 13 6 7 1022.9 1022.9 1.0
17/03:00am 19.9 21.0 17.1 84 1.7 SSW 7 9 4 5 1023.2 1023.2 1.0
17/02:30am 20.2 21.5 17.0 82 1.9 S 6 7 3 4 1023.5 1023.5 1.0
17/02:00am 20.5 22.6 17.1 81 2.1 SE 2 6 1 3 1023.7 1023.7 1.0
17/01:30am 20.3 21.6 17.1 82 1.9 SSE 6 9 3 5 1023.7 1023.7 1.0
17/01:00am 20.1 22.4 16.7 81 2.0 CALM 0 0 0 0 1023.6 1023.6 1.0
17/12:30am 20.1 21.3 16.9 82 1.9 S 6 7 3 4 1023.8 1023.8 1.0
17/12:00am 20.1 21.1 16.9 82 1.9 S 7 9 4 5 1023.8 1023.8 1.0
 
Date/Time
EST
Tmp

°C
App
Tmp
°C
Dew
Point
°C
Rel
Hum
%
Delta-T

°C
Wind Press
QNH
hPa
Press
MSL
hPa
Rain
since
9 am
mm
Dir
 
Spd
km/h
Gust
km/h
Spd
kts
Gust
kts
16/11:30pm 20.2 21.3 17.0 82 1.9 S 7 9 4 5 1024.0 1024.0 1.0
16/11:00pm 20.2 21.5 17.0 82 1.9 S 6 9 3 5 1023.8 1023.8 1.0
16/10:30pm 20.2 21.3 17.0 82 1.9 SSW 7 9 4 5 1024.0 1024.0 1.0
16/10:00pm 20.2 21.0 17.2 83 1.8 S 9 11 5 6 1023.9 1023.9 1.0
16/09:30pm 19.6 20.4 16.4 82 1.9 SSW 7 9 4 5 1023.7 1023.7 1.0
16/09:00pm 20.2 20.6 16.4 79 2.3 SSE 9 15 5 8 1023.5 1023.5 1.0
16/08:30pm 20.4 20.6 16.8 80 2.2 SE 11 17 6 9 1023.3 1023.3 1.0
16/08:00pm 20.9 20.1 17.1 79 2.3 SE 17 24 9 13 1023.0 1023.0 1.0
16/07:30pm 21.0 20.2 17.0 78 2.4 SE 17 24 9 13 1022.6 1022.6 1.0
16/07:00pm 21.2 19.8 17.0 77 2.6 SE 20 26 11 14 1022.2 1022.2 1.0
16/06:30pm 21.4 21.7 17.8 80 2.2 SSE 13 22 7 12 1022.1 1022.1 1.0
16/06:27pm 21.4 21.0 18.0 81 2.1 SE 17 24 9 13 1021.9 1021.9 1.0
16/06:08pm 21.5 18.9 17.7 79 2.3 SE 28 37 15 20 1021.0 1021.0 0.8
16/06:00pm 22.0 20.8 17.4 75 2.8 SSE 20 32 11 17 1021.2 1021.2 0.0

Latest Capital City Observations: Canberra | Sydney | Melbourne | Brisbane | Adelaide | Perth | Hobart | Darwin

Other Formats:

Comma delimited format used in spreadsheet applications
http://www.bom.gov.au/fwo/IDN60901/IDN60901.94765.axf

JavaScript Object Notation format (JSON) in row-major order
http://www.bom.gov.au/fwo/IDN60901/IDN60901.94765.json